Time;durP1;ratioP1;P1;durP2;ratioP2;P2;SDS_P1;SDS_P2;PMS_P1;PMS_P2;Temp;Humidity;BMP_temperature;BMP_pressure;BME280_temperature;BME280_humidity;BME280_pressure;Samples;Min_cycle;Max_cycle;Signal;HPM_P1;HPM_P2
2021/12/16 00:37:20;;;;;;;4.85;2.42;;;;;;;17.79;55.72;103441.75;4792911;30;20062;-85
2021/12/16 05:50:40;;;;;;;1.60;1.50;;;;;;;17.53;55.54;103576.31;4988590;24;20051;-84
2021/12/16 05:56:28;;;;;;;2.80;1.73;;;;;;;17.55;55.84;103585.06;4830043;29;20034;-83
2021/12/16 06:01:42;;;;;;;2.53;1.60;;;;;;;17.56;55.93;103584.25;4833879;24;20063;-84
2021/12/16 06:29:01;;;;;;;7.38;3.38;;;;;;;17.59;56.17;103610.38;4766801;29;20051;-83
2021/12/16 06:31:29;;;;;;;8.80;3.78;;;;;;;17.57;56.59;103612.06;4748405;30;20040;-81
2021/12/16 06:33:55;;;;;;;10.95;3.47;;;;;;;17.57;56.36;103609.44;4764458;30;20095;-80
2021/12/16 06:42:37;;;;;;;10.98;4.13;;;;;;;17.63;56.73;103633.09;4789283;30;20059;-83
2021/12/16 06:45:29;;;;;;;8.15;3.80;;;;;;;17.65;56.58;103639.25;4773759;30;20043;-85
2021/12/16 06:48:03;;;;;;;12.45;4.00;;;;;;;17.63;56.84;103639.19;4761450;30;20128;-80
2021/12/16 06:50:57;;;;;;;9.32;3.60;;;;;;;17.65;56.91;103653.16;4769109;30;20048;-84
2021/12/16 07:03:47;;;;;;;7.95;3.55;;;;;;;17.66;56.60;103661.88;4772673;30;20055;-84
2021/12/16 07:06:42;;;;;;;11.75;3.70;;;;;;;17.66;56.70;103667.09;4756246;30;20103;-83
2021/12/16 07:15:43;;;;;;;9.68;3.60;;;;;;;17.65;57.01;103676.59;4725734;30;20075;-85
2021/12/16 07:22:08;;;;;;;6.35;3.50;;;;;;;17.66;56.90;103680.97;4750224;30;20116;-83
2021/12/16 07:25:18;;;;;;;9.25;3.60;;;;;;;17.67;56.91;103687.06;4771730;30;20047;-84
2021/12/16 07:28:07;;;;;;;6.65;3.13;;;;;;;17.67;56.74;103693.16;4773882;30;20043;-82
2021/12/16 07:33:38;;;;;;;6.72;3.47;;;;;;;17.66;56.86;103694.00;4789478;29;20047;-79
2021/12/16 08:21:45;;;;;;;7.95;3.00;;;;;;;17.99;56.32;103773.34;5495644;24;20054;-85
2021/12/16 08:24:21;;;;;;;4.70;2.60;;;;;;;18.00;56.16;103767.28;4814048;29;20058;-85
2021/12/16 08:27:13;;;;;;;5.32;2.70;;;;;;;17.99;56.17;103770.72;4799148;29;20060;-85
2021/12/16 08:51:14;;;;;;;5.47;2.28;;;;;;;18.08;55.66;103790.16;4829297;29;20101;-85
2021/12/16 08:54:07;;;;;;;5.40;2.72;;;;;;;18.09;55.85;103791.03;4785464;29;20034;-85
2021/12/16 09:03:40;;;;;;;4.65;2.70;;;;;;;18.08;55.82;103795.38;4793855;29;20058;-85
2021/12/16 10:08:49;;;;;;;3.35;2.45;;;;;;;18.04;55.88;103857.75;3124353;27;20106;-84
2021/12/16 10:12:21;;;;;;;4.57;2.58;;;;;;;18.04;55.75;103855.16;4770177;30;20111;-85
2021/12/16 10:54:29;;;;;;;5.50;2.38;;;;;;;18.06;55.74;103866.53;5740459;24;20024;-84
2021/12/16 10:57:40;;;;;;;5.15;2.13;;;;;;;18.06;55.96;103859.59;4781880;30;20046;-85
2021/12/16 11:00:41;;;;;;;2.97;2.17;;;;;;;18.05;55.66;103857.81;4775536;30;20064;-84
2021/12/16 11:17:37;;;;;;;3.05;2.30;;;;;;;18.07;55.66;103861.38;4010112;27;20063;-85
2021/12/16 11:23:50;;;;;;;4.05;2.20;;;;;;;18.10;55.73;103855.38;4810563;30;20053;-86
2021/12/16 11:26:46;;;;;;;3.33;2.20;;;;;;;18.09;55.62;103850.97;4795004;30;20015;-84
2021/12/16 11:29:41;;;;;;;4.35;2.28;;;;;;;18.11;55.78;103864.06;4794217;29;20051;-85
2021/12/16 11:32:32;;;;;;;3.95;2.45;;;;;;;18.11;55.69;103861.47;4772120;30;20023;-85
2021/12/16 11:39:03;;;;;;;3.40;2.47;;;;;;;18.09;55.61;103849.28;4792147;29;20065;-85
2021/12/16 11:42:03;;;;;;;3.45;2.47;;;;;;;18.11;55.79;103854.53;4791587;29;20051;-84
2021/12/16 12:26:31;;;;;;;4.07;2.17;;;;;;;18.08;55.66;103842.28;5077024;24;20063;-85
2021/12/16 15:14:27;;;;;;;2.85;2.03;;;;;;;17.92;55.57;103904.19;5325943;24;20045;-82
2021/12/16 16:09:10;;;;;;;3.55;2.05;;;;;;;17.83;55.48;103969.84;4828675;24;20065;-83
2021/12/16 16:23:36;;;;;;;2.83;2.30;;;;;;;17.79;55.41;103967.91;4830220;29;20069;-84
2021/12/16 16:43:31;;;;;;;3.35;2.53;;;;;;;17.79;55.40;103975.75;4793366;29;20133;-84
2021/12/16 16:46:32;;;;;;;2.88;2.35;;;;;;;17.77;55.55;103980.91;4792092;30;20051;-84
2021/12/16 17:53:23;;;;;;;4.32;3.10;;;;;;;17.70;55.15;103999.69;2958780;27;20046;-83
2021/12/16 18:18:16;;;;;;;4.90;4.30;;;;;;;17.78;55.23;104015.66;4810517;29;20169;-79
2021/12/16 18:24:09;;;;;;;5.78;4.28;;;;;;;17.79;55.09;104015.72;5552080;24;20082;-80
2021/12/16 18:27:13;;;;;;;5.88;4.35;;;;;;;17.82;55.20;104020.19;4813922;29;20035;-81
2021/12/16 18:29:38;;;;;;;5.82;4.30;;;;;;;17.82;55.17;104026.28;4807237;29;20501;-84
2021/12/16 18:32:04;;;;;;;7.53;4.63;;;;;;;17.84;55.28;104034.19;4776293;29;20065;-88
2021/12/16 18:34:31;;;;;;;6.93;5.28;;;;;;;17.83;55.38;104029.78;4791137;29;20030;-88
2021/12/16 18:37:05;;;;;;;9.85;4.50;;;;;;;17.85;55.24;104042.03;4791203;29;20034;-85
2021/12/16 18:39:36;;;;;;;6.05;4.38;;;;;;;17.85;55.52;104044.63;4790950;29;20027;-87
2021/12/16 18:42:09;;;;;;;6.78;5.05;;;;;;;17.85;54.96;104039.41;4790997;29;20052;-90
2021/12/16 18:44:40;;;;;;;;;;;;;;;17.86;55.28;104037.72;4791440;29;20041;-86
2021/12/16 18:47:24;;;;;;;11.52;5.10;;;;;;;17.87;55.29;104034.28;4791331;29;19913;-89
2021/12/16 18:49:55;;;;;;;7.57;5.20;;;;;;;17.84;55.12;104028.97;4807282;29;20035;-86
2021/12/16 18:52:47;;;;;;;8.77;4.90;;;;;;;17.82;55.31;104033.22;4776663;29;20101;-83
2021/12/16 18:55:15;;;;;;;6.93;5.07;;;;;;;17.79;55.47;104039.16;4806969;29;20034;-80
2021/12/16 18:57:41;;;;;;;7.93;5.15;;;;;;;17.78;55.68;104034.78;4806787;29;20379;-83
2021/12/16 19:00:08;;;;;;;7.78;5.13;;;;;;;17.78;55.85;104039.97;4790466;29;20037;-85
2021/12/16 19:02:34;;;;;;;9.77;5.43;;;;;;;17.78;55.87;104044.31;4775602;29;20054;-84
2021/12/16 19:04:59;;;;;;;7.72;5.78;;;;;;;17.79;56.20;104046.06;4790434;29;20074;-81
2021/12/16 19:07:31;;;;;;;6.82;5.25;;;;;;;17.79;56.08;104046.97;4790189;29;20038;-76
2021/12/16 19:09:58;;;;;;;7.28;6.15;;;;;;;17.78;56.51;104039.97;4806504;29;20064;-83
2021/12/16 19:12:29;;;;;;;8.15;5.95;;;;;;;17.79;56.16;104046.97;4790500;29;20035;-83
2021/12/16 19:15:13;;;;;;;7.57;6.10;;;;;;;17.80;56.35;104040.06;4806403;29;20027;-79
2021/12/16 19:17:40;;;;;;;7.45;5.90;;;;;;;17.81;56.52;104041.81;4790143;29;20551;-81
2021/12/16 19:20:11;;;;;;;7.70;5.43;;;;;;;17.81;56.48;104044.41;4775367;29;20070;-77
2021/12/16 19:22:36;;;;;;;9.02;6.07;;;;;;;17.80;56.41;104037.44;4806085;29;20490;-79
2021/12/16 19:25:03;;;;;;;6.50;5.30;;;;;;;17.80;56.66;104051.34;4789929;29;20070;-78
2021/12/16 19:27:28;;;;;;;7.88;5.85;;;;;;;17.81;56.58;104041.81;4790055;29;20035;-77
2021/12/16 19:29:56;;;;;;;8.18;6.20;;;;;;;17.80;56.67;104043.53;4806246;29;20026;-76
2021/12/16 19:32:23;;;;;;;6.88;5.80;;;;;;;17.79;56.68;104057.41;4790094;29;20051;-83
2021/12/16 19:34:52;;;;;;;7.50;6.20;;;;;;;17.79;56.48;104052.19;4806287;29;20078;-80
2021/12/16 19:37:18;;;;;;;7.53;5.65;;;;;;;17.79;56.66;104048.69;4790470;29;20035;-80
2021/12/16 19:39:44;;;;;;;8.13;6.07;;;;;;;17.78;56.85;104049.50;4793866;29;20095;-80
2021/12/16 19:42:10;;;;;;;6.78;6.07;;;;;;;17.78;56.86;104053.00;4793684;29;20043;-81
2021/12/16 19:44:36;;;;;;;7.10;5.78;;;;;;;17.77;56.73;104052.94;4778879;29;20051;-81
2021/12/16 19:47:02;;;;;;;7.43;5.70;;;;;;;17.76;56.85;104052.06;4778894;29;20027;-80
2021/12/16 19:49:28;;;;;;;6.75;5.82;;;;;;;17.76;56.69;104052.06;4810262;29;20038;-80
2021/12/16 19:51:57;;;;;;;7.10;5.50;;;;;;;17.76;56.76;104045.97;4793950;29;20027;-80
2021/12/16 19:54:23;;;;;;;8.75;5.85;;;;;;;17.76;56.83;104056.38;4793860;29;20042;-82
2021/12/16 19:56:51;;;;;;;7.68;5.57;;;;;;;17.76;56.62;104054.66;4793704;29;20031;-81
2021/12/16 19:59:18;;;;;;;7.85;5.85;;;;;;;17.75;56.78;104054.63;4809749;29;20037;-78
2021/12/16 20:01:44;;;;;;;8.38;5.78;;;;;;;17.75;56.54;104060.72;4793192;29;20035;-81
2021/12/16 20:04:12;;;;;;;7.68;5.75;;;;;;;17.74;56.55;104066.72;4793395;29;20109;-80
2021/12/16 20:06:40;;;;;;;6.85;5.78;;;;;;;17.74;56.60;104068.44;4793475;29;20037;-80
2021/12/16 20:09:14;;;;;;;7.00;6.03;;;;;;;17.75;56.40;104080.66;4793202;29;20049;-79
2021/12/16 20:11:45;;;;;;;6.68;5.72;;;;;;;17.74;56.50;104081.47;4793455;29;20023;-81
2021/12/16 20:14:11;;;;;;;7.25;5.97;;;;;;;17.75;56.46;104088.47;4793312;29;20027;-78
2021/12/16 20:16:43;;;;;;;6.88;6.00;;;;;;;17.73;56.48;104088.41;4793455;29;20072;-80
2021/12/16 20:19:10;;;;;;;7.45;6.40;;;;;;;17.74;56.53;104089.28;4793634;29;20122;-78
2021/12/16 20:21:42;;;;;;;7.68;6.32;;;;;;;17.73;56.52;104092.72;4809461;29;20072;-80
2021/12/16 20:24:11;;;;;;;8.70;6.72;;;;;;;17.73;56.58;104090.13;4808883;29;20142;-81
2021/12/16 20:27:19;;;;;;;10.15;6.88;;;;;;;17.75;56.53;104085.88;4809208;29;20022;-82
2021/12/16 20:29:52;;;;;;;9.02;7.20;;;;;;;17.72;56.88;104085.72;4809875;29;20035;-84
2021/12/16 20:32:25;;;;;;;7.80;6.95;;;;;;;17.72;56.54;104086.59;4792724;29;20423;-83
2021/12/16 20:35:05;;;;;;;8.73;6.97;;;;;;;17.73;56.50;104092.72;4792727;29;20589;-79
2021/12/16 20:37:31;;;;;;;6.70;5.78;;;;;;;17.73;56.65;104087.53;4792845;29;20045;-78
2021/12/16 20:40:05;;;;;;;8.45;6.40;;;;;;;17.73;56.69;104084.91;4792652;29;20114;-81
2021/12/16 20:42:32;;;;;;;;;;;;;;;17.74;56.63;104090.16;4808947;29;20483;-79
2021/12/16 20:45:11;;;;;;;8.25;6.97;;;;;;;17.72;56.55;104086.59;4792778;29;19970;-82
2021/12/16 20:47:37;;;;;;;8.18;6.82;;;;;;;17.74;56.71;104087.56;4808942;29;20062;-82
2021/12/16 20:50:05;;;;;;;8.20;6.70;;;;;;;17.75;56.78;104086.75;4808555;29;20035;-82
2021/12/16 20:52:34;;;;;;;9.23;6.50;;;;;;;17.76;56.63;104090.25;4792574;29;20035;-83
2021/12/16 20:55:17;;;;;;;8.32;6.95;;;;;;;17.76;56.88;104085.91;4808921;29;20030;-79
2021/12/16 20:57:48;;;;;;;8.50;6.97;;;;;;;17.76;56.73;104087.63;4809118;29;20038;-80
2021/12/16 21:00:20;;;;;;;8.82;6.90;;;;;;;17.78;56.84;104088.59;4808974;29;20031;-81
2021/12/16 21:02:45;;;;;;;8.23;6.97;;;;;;;17.77;56.69;104089.41;4792304;29;20041;-83
2021/12/16 21:05:26;;;;;;;8.93;7.15;;;;;;;17.76;56.62;104098.94;4792231;29;20023;-82
2021/12/16 21:07:51;;;;;;;7.85;6.55;;;;;;;17.78;56.76;104097.28;4792482;29;20476;-82
2021/12/16 21:10:17;;;;;;;9.05;7.63;;;;;;;17.77;56.74;104098.13;4792694;29;20084;-84
2021/12/16 21:12:43;;;;;;;9.65;8.32;;;;;;;17.77;56.63;104105.03;4792692;29;20087;-83
2021/12/16 21:15:10;;;;;;;9.50;8.10;;;;;;;17.76;56.81;104104.16;4808503;29;20030;-81
2021/12/16 21:17:37;;;;;;;8.95;7.55;;;;;;;17.77;56.90;104099.81;4762581;29;20031;-82
2021/12/16 21:20:09;;;;;;;8.48;7.47;;;;;;;17.77;56.53;104105.03;4777395;29;20034;-79
2021/12/16 21:22:35;;;;;;;10.20;7.97;;;;;;;17.76;56.59;104104.16;4808192;29;20405;-83
2021/12/16 21:25:04;;;;;;;9.25;7.95;;;;;;;17.76;56.70;104106.75;4792083;29;20554;-82
2021/12/16 21:27:32;;;;;;;9.85;8.25;;;;;;;17.76;56.74;104108.47;4807980;29;20042;-80
2021/12/16 21:29:57;;;;;;;9.48;8.02;;;;;;;17.76;56.76;104111.09;4792309;29;20037;-80
2021/12/16 21:32:23;;;;;;;9.85;8.10;;;;;;;17.75;56.53;104106.72;4807991;29;20027;-79
2021/12/16 21:34:58;;;;;;;11.05;8.68;;;;;;;17.75;56.75;104109.31;4791888;29;20050;-83
2021/12/16 21:37:24;;;;;;;10.25;8.65;;;;;;;17.76;56.63;104111.97;4808116;29;20492;-79
2021/12/16 21:39:50;;;;;;;8.85;7.88;;;;;;;17.75;56.35;104117.13;4792464;29;20059;-80
2021/12/16 21:42:37;;;;;;;8.68;7.15;;;;;;;17.75;56.45;104109.31;4791649;29;20035;-81
2021/12/16 21:45:06;;;;;;;9.30;7.82;;;;;;;17.73;56.71;104097.94;4808062;29;20031;-78
2021/12/16 21:47:32;;;;;;;9.43;8.05;;;;;;;17.75;56.58;104104.09;4807885;29;20125;-83
2021/12/16 21:49:59;;;;;;;10.77;8.18;;;;;;;17.74;56.84;104097.97;4776517;29;20169;-82
2021/12/16 21:52:25;;;;;;;9.57;8.20;;;;;;;17.75;56.51;104102.38;4791546;29;20031;-81
2021/12/16 21:54:51;;;;;;;9.05;7.47;;;;;;;17.74;56.34;104107.53;4791852;29;20046;-82
2021/12/16 21:57:17;;;;;;;8.45;7.30;;;;;;;17.74;56.44;104110.13;4807494;29;20031;-83
2021/12/16 21:59:44;;;;;;;9.38;7.85;;;;;;;17.73;56.56;104106.63;4791384;29;20034;-78
2021/12/16 22:02:09;;;;;;;9.43;7.65;;;;;;;17.74;56.41;104099.72;4790860;29;20051;-82
2021/12/16 22:04:37;;;;;;;10.05;7.63;;;;;;;17.73;56.37;104098.81;4776378;29;20509;-77
2021/12/16 22:07:02;;;;;;;10.20;7.78;;;;;;;17.73;56.40;104106.63;4791450;29;20414;-79
2021/12/16 22:09:28;;;;;;;8.70;7.32;;;;;;;17.72;56.42;104102.25;4807420;29;20064;-79
2021/12/16 22:11:54;;;;;;;12.65;7.78;;;;;;;17.72;56.47;104107.44;4807349;29;20053;-80
2021/12/16 22:14:20;;;;;;;9.13;7.28;;;;;;;17.73;56.48;104105.75;4807339;29;20443;-80
2021/12/16 22:16:49;;;;;;;8.60;7.50;;;;;;;17.73;56.45;104100.56;4776309;29;20037;-78
2021/12/16 22:19:15;;;;;;;8.63;6.97;;;;;;;17.72;56.46;104102.25;4807127;29;20034;-80
2021/12/16 22:21:46;;;;;;;8.50;7.05;;;;;;;17.73;56.41;104116.19;4807252;29;20394;-80
2021/12/16 22:24:13;;;;;;;7.78;6.60;;;;;;;17.73;56.29;104111.84;4790855;29;20056;-81
2021/12/16 22:26:39;;;;;;;8.55;6.75;;;;;;;17.72;56.37;104112.66;4807087;29;20470;-80
2021/12/16 22:29:06;;;;;;;8.95;7.32;;;;;;;17.72;56.26;104120.47;4776083;29;20137;-80
2021/12/16 22:31:33;;;;;;;7.63;6.55;;;;;;;17.72;56.41;104117.00;4790949;29;20095;-82
2021/12/16 22:34:06;;;;;;;8.20;6.50;;;;;;;17.71;56.11;104131.72;4790671;29;20038;-81
2021/12/16 22:36:32;;;;;;;;;;;;;;;17.72;56.13;104127.41;4791100;29;20402;-79
2021/12/16 22:38:58;;;;;;;7.78;6.22;;;;;;;17.72;56.14;104127.41;4790571;29;19933;-82
2021/12/16 22:41:23;;;;;;;8.85;7.05;;;;;;;17.71;56.32;104125.63;4790630;29;20031;-82
2021/12/16 22:43:48;;;;;;;13.25;7.22;;;;;;;17.72;56.41;104128.28;4775759;29;20176;-86
2021/12/16 22:46:14;;;;;;;7.88;6.65;;;;;;;17.73;56.62;104126.59;4775709;29;20062;-82
2021/12/16 22:48:41;;;;;;;8.60;7.07;;;;;;;17.72;56.38;104122.19;4790598;29;20031;-85
2021/12/16 22:51:09;;;;;;;8.20;6.90;;;;;;;17.73;56.49;104122.28;4806871;29;20500;-83
2021/12/16 22:53:36;;;;;;;10.75;6.65;;;;;;;17.72;56.53;104128.28;4790591;29;20113;-83
2021/12/16 22:56:02;;;;;;;7.85;6.50;;;;;;;17.72;56.37;104130.88;4790447;29;20046;-83
2021/12/16 22:58:28;;;;;;;10.82;6.57;;;;;;;17.71;56.42;104126.53;4806739;29;20030;-83
2021/12/16 23:00:57;;;;;;;8.63;6.85;;;;;;;17.71;56.32;104126.53;4775578;29;20045;-84
2021/12/16 23:03:23;;;;;;;9.48;6.75;;;;;;;17.71;56.47;104125.63;4790821;29;20031;-82
2021/12/16 23:05:49;;;;;;;7.68;6.38;;;;;;;17.69;56.28;104113.41;4775439;29;20086;-82
2021/12/16 23:08:15;;;;;;;8.65;6.72;;;;;;;17.70;56.23;104116.91;4790868;29;20042;-83
2021/12/16 23:10:43;;;;;;;7.68;6.55;;;;;;;17.69;56.04;104112.53;4790154;29;20107;-82
2021/12/16 23:13:09;;;;;;;7.60;6.22;;;;;;;17.69;56.29;104116.03;4805619;29;20034;-82
2021/12/16 23:23:45;;;;;;;9.07;6.18;;;;;;;17.68;56.32;104113.34;4806162;29;20115;-84
2021/12/16 23:26:15;;;;;;;7.22;6.00;;;;;;;17.69;55.87;104125.56;4775348;29;20439;-83
2021/12/16 23:28:42;;;;;;;6.93;5.68;;;;;;;17.68;55.97;104126.38;4790191;29;20039;-84
2021/12/16 23:31:08;;;;;;;6.90;5.78;;;;;;;17.68;56.04;104127.28;4790401;29;20026;-84
2021/12/16 23:33:33;;;;;;;6.25;5.65;;;;;;;17.68;55.98;104124.69;4790048;29;20027;-84
2021/12/16 23:35:59;;;;;;;7.60;5.68;;;;;;;17.67;55.72;104117.69;4790287;29;20031;-84
2021/12/16 23:54:33;;;;;;;6.53;5.55;;;;;;;17.66;55.87;104122.84;4792700;29;20180;-84
2021/12/16 23:56:58;;;;;;;6.57;5.50;;;;;;;17.66;55.84;104112.44;4789919;29;20121;-82
2021/12/16 23:59:27;;;;;;;6.20;5.18;;;;;;;17.66;56.03;104108.09;4760212;29;20087;-82
